Lookout, California
Current Conditions -  °F | °C
As of 11:55 AM on Saturday 25 Oct 2014 (Local Time) from KAAT Reporting Station
Broken Clouds Broken Clouds  
Wind Chill: 53°   Ceiling: 11000
Heat Index: 53°   Visibility: 10mi
Dew Point: 35°   Wind: 25mph
Humidity: 50%   Direction: 200°SSW
Pressure: 29.9"   Gusts: 31mph
Location:  41.21°N, 121.16°W
Report Text: KAAT 251855Z AUTO 20022G27KT 10SM BKN110 12/02 A2990 RMK AO2 PK WND 20033/1812 SLP099 T01170017
Loading
Personal Weather Stations






























Interactive Weather Map
Tropical Storm Tracking
New forecast layout! Learn more

10-Day Weather Forecast

Advertisements
Track Severe Weather on mobile